createdAt,value
2023-05-21T00:01:09.545Z,101860.94
2023-05-21T00:06:13.407Z,101850.47
2023-05-21T00:11:17.808Z,101857.44
2023-05-21T00:16:19.509Z,101841.72
2023-05-21T00:21:26.367Z,101837.38
2023-05-21T00:26:28.091Z,101836.53
2023-05-21T00:31:32.304Z,101829.53
2023-05-21T00:36:34.762Z,101826.00
2023-05-21T00:41:36.448Z,101817.31
2023-05-21T00:46:39.667Z,101807.72
2023-05-21T00:51:41.532Z,101805.09
2023-05-21T00:56:43.245Z,101802.47
2023-05-21T01:01:45.659Z,101807.72
2023-05-21T01:06:47.361Z,101805.97
2023-05-21T01:11:51.213Z,101806.00
2023-05-21T01:16:56.199Z,101807.72
2023-05-21T01:22:01.817Z,101799.88
2023-05-21T01:27:06.738Z,101794.66
2023-05-21T01:32:23.675Z,101796.34
2023-05-21T01:37:41.841Z,101788.53
2023-05-21T01:42:45.635Z,101788.47
2023-05-21T01:47:52.800Z,101785.91
2023-05-21T01:52:57.044Z,101785.88
2023-05-21T01:58:01.963Z,101786.63
2023-05-21T02:03:04.336Z,101783.19
2023-05-21T02:08:08.400Z,101783.94
2023-05-21T02:13:10.016Z,101782.19
2023-05-21T02:18:16.761Z,101778.75
2023-05-21T02:23:18.829Z,101769.97
2023-05-21T02:28:21.384Z,101766.59
2023-05-21T02:33:23.175Z,101775.22
2023-05-21T02:38:27.513Z,101766.50
2023-05-21T02:43:29.138Z,101769.16
2023-05-21T02:48:30.720Z,101770.91
2023-05-21T02:53:32.515Z,101769.84
2023-05-21T02:58:34.241Z,101771.41
2023-05-21T03:03:35.903Z,101763.69
2023-05-21T03:08:38.130Z,101761.00
2023-05-21T03:13:39.768Z,101761.69
2023-05-21T03:18:41.646Z,101753.91
2023-05-21T03:23:43.387Z,101740.88
2023-05-21T03:28:45.152Z,101752.13
2023-05-21T03:33:47.422Z,101749.53
2023-05-21T03:38:57.184Z,101755.56
2023-05-21T03:43:59.107Z,101759.06
2023-05-21T03:49:06.005Z,101751.09
2023-05-21T03:54:10.088Z,101751.06
2023-05-21T03:59:14.699Z,101750.00
2023-05-21T04:04:17.742Z,101749.31
2023-05-21T04:09:19.411Z,101754.38
2023-05-21T04:14:21.468Z,101757.13
2023-05-21T04:19:23.185Z,101767.00
2023-05-21T04:24:25.470Z,101771.28
2023-05-21T04:29:58.017Z,101764.19
2023-05-21T04:35:01.134Z,101772.09
2023-05-21T04:40:04.283Z,101777.38
2023-05-21T04:45:06.598Z,101770.25
2023-05-21T04:50:12.045Z,101767.97
2023-05-21T04:55:13.684Z,101769.69
2023-05-21T05:00:16.514Z,101773.81
2023-05-21T05:05:20.204Z,101766.09
2023-05-21T05:10:23.471Z,101761.97
2023-05-21T05:15:26.834Z,101759.25
2023-05-21T05:20:28.492Z,101755.78
2023-05-21T05:25:30.401Z,101748.88
2023-05-21T05:30:34.279Z,101756.69
2023-05-21T05:35:46.731Z,101750.63
2023-05-21T05:40:48.398Z,101757.59
2023-05-21T05:45:50.083Z,101756.94
2023-05-21T05:50:54.713Z,101739.56
2023-05-21T05:55:57.546Z,101749.03
2023-05-21T06:00:59.198Z,101753.38
2023-05-21T06:06:02.713Z,101755.28
2023-05-21T06:11:05.835Z,101753.44
2023-05-21T06:16:07.629Z,101753.47
2023-05-21T06:21:09.417Z,101747.50
2023-05-21T06:26:11.157Z,101747.50
2023-05-21T06:31:13.712Z,101745.81
2023-05-21T06:36:17.071Z,101748.44
2023-05-21T06:41:19.336Z,101745.81
2023-05-21T06:46:25.488Z,101744.81
2023-05-21T06:51:27.354Z,101740.25
2023-05-21T06:56:30.070Z,101743.00
2023-05-21T07:01:32.384Z,101742.88
2023-05-21T07:06:35.432Z,101739.41
2023-05-21T07:11:38.908Z,101736.13
2023-05-21T07:16:41.403Z,101735.09
2023-05-21T07:21:43.602Z,101731.44
2023-05-21T07:26:46.309Z,101723.63
2023-05-21T07:31:48.205Z,101731.69
2023-05-21T07:36:49.986Z,101720.66
2023-05-21T07:41:51.742Z,101720.81
2023-05-21T07:46:53.539Z,101721.63
2023-05-21T07:51:55.274Z,101716.25
2023-05-21T07:56:56.981Z,101715.41
2023-05-21T08:02:21.784Z,101720.09
2023-05-21T08:07:23.750Z,101712.22
2023-05-21T08:12:25.733Z,101700.50
2023-05-21T08:17:28.847Z,101701.44
2023-05-21T08:22:30.795Z,101707.63
2023-05-21T08:27:32.477Z,101702.81
2023-05-21T08:32:34.511Z,101711.28
2023-05-21T08:37:36.857Z,101709.09
2023-05-21T08:42:50.048Z,101695.22
2023-05-21T08:48:13.246Z,101694.53
2023-05-21T08:53:27.251Z,101695.28
2023-05-21T08:58:33.831Z,101694.22
2023-05-21T09:03:40.584Z,101698.28
2023-05-21T09:08:54.103Z,101694.09
2023-05-21T09:14:11.563Z,101681.94
2023-05-21T09:19:37.911Z,101689.94
2023-05-21T09:24:40.141Z,101683.47
2023-05-21T09:29:42.289Z,101677.47
2023-05-21T09:34:44.053Z,101674.75
2023-05-21T09:39:47.843Z,101669.13
2023-05-21T09:44:49.940Z,101662.28
2023-05-21T09:49:51.566Z,101670.09
2023-05-21T09:54:53.680Z,101661.97
2023-05-21T09:59:56.009Z,101662.66
2023-05-21T10:04:58.129Z,101655.63
2023-05-21T10:10:01.714Z,101640.34
2023-05-21T10:15:04.776Z,101647.13
2023-05-21T10:20:08.554Z,101640.16
2023-05-21T10:25:10.698Z,101633.66
2023-05-21T10:30:12.298Z,101627.56
2023-05-21T10:35:16.228Z,101616.50
2023-05-21T10:40:24.654Z,101624.28
2023-05-21T10:46:06.165Z,101626.28
2023-05-21T10:58:15.378Z,101611.69
2023-05-21T11:03:17.728Z,101618.13
2023-05-21T11:08:25.834Z,101619.59
2023-05-21T11:13:28.616Z,101604.00
2023-05-21T11:24:23.812Z,101608.53
2023-05-21T11:29:42.708Z,101608.16
2023-05-21T11:34:46.175Z,101601.69
2023-05-21T11:39:48.821Z,101592.66
2023-05-21T11:44:50.482Z,101601.44
2023-05-21T11:49:52.632Z,101597.91
2023-05-21T11:54:58.314Z,101592.44
2023-05-21T12:00:02.553Z,101576.50
2023-05-21T12:05:14.458Z,101587.56
2023-05-21T12:10:21.198Z,101583.91
2023-05-21T12:15:26.015Z,101584.25
2023-05-21T12:20:28.793Z,101561.34
2023-05-21T12:25:32.064Z,101586.19
2023-05-21T12:30:33.815Z,101573.31
2023-05-21T12:35:36.160Z,101567.94
2023-05-21T12:40:42.785Z,101561.94
2023-05-21T12:45:46.557Z,101567.09
2023-05-21T12:50:48.325Z,101559.00
2023-05-21T12:55:50.543Z,101555.97
2023-05-21T13:00:55.253Z,101548.41
2023-05-21T13:06:01.268Z,101541.84
2023-05-21T13:11:03.501Z,101555.75
2023-05-21T13:16:06.268Z,101540.41
2023-05-21T13:21:07.881Z,101543.72
2023-05-21T13:26:09.869Z,101523.88
2023-05-21T13:31:12.221Z,101526.50
2023-05-21T13:36:13.863Z,101525.19
2023-05-21T13:41:15.488Z,101515.00
2023-05-21T13:46:17.173Z,101506.72
2023-05-21T13:51:37.067Z,101518.38
2023-05-21T13:56:40.024Z,101513.72
2023-05-21T14:01:41.920Z,101515.03
2023-05-21T14:06:43.873Z,101517.63
2023-05-21T14:11:45.638Z,101512.28
2023-05-21T14:16:47.584Z,101516.41
2023-05-21T14:21:51.817Z,101512.53
2023-05-21T14:26:53.409Z,101512.91
2023-05-21T14:31:54.978Z,101508.44
2023-05-21T14:36:56.560Z,101506.44
2023-05-21T14:41:58.299Z,101499.13
2023-05-21T14:46:59.985Z,101506.34
2023-05-21T14:52:01.636Z,101503.94
2023-05-21T14:57:03.350Z,101503.38
2023-05-21T15:02:05.316Z,101501.44
2023-05-21T15:07:07.003Z,101493.34
2023-05-21T15:12:08.586Z,101492.97
2023-05-21T15:17:10.117Z,101487.56
2023-05-21T15:22:11.739Z,101488.34
2023-05-21T15:27:13.321Z,101483.16
2023-05-21T15:32:15.127Z,101483.88
2023-05-21T15:37:16.903Z,101472.16
2023-05-21T15:42:20.263Z,101468.38
2023-05-21T15:47:22.275Z,101473.19
2023-05-21T15:52:24.029Z,101470.44
2023-05-21T15:57:25.699Z,101461.19
2023-05-21T16:02:27.331Z,101462.59
2023-05-21T16:07:29.003Z,101463.38
2023-05-21T16:12:30.656Z,101464.66
2023-05-21T16:17:32.353Z,101461.25
2023-05-21T16:22:34.001Z,101458.28
2023-05-21T16:27:36.230Z,101465.56
2023-05-21T16:32:39.507Z,101455.44
2023-05-21T16:37:41.158Z,101460.91
2023-05-21T16:42:43.457Z,101460.06
2023-05-21T16:47:48.843Z,101452.09
2023-05-21T16:52:50.397Z,101460.69
2023-05-21T16:57:51.943Z,101453.44
2023-05-21T17:02:54.143Z,101460.00
2023-05-21T17:07:55.875Z,101458.88
2023-05-21T17:12:59.829Z,101465.56
2023-05-21T17:18:03.657Z,101474.50
2023-05-21T17:23:05.420Z,101484.09
2023-05-21T17:28:07.237Z,101468.56
2023-05-21T17:33:10.337Z,101475.44
2023-05-21T17:38:12.374Z,101465.25
2023-05-21T17:43:13.955Z,101473.56
2023-05-21T17:48:15.663Z,101479.31
2023-05-21T17:53:18.165Z,101487.50
2023-05-21T17:58:19.865Z,101493.50
2023-05-21T18:03:22.089Z,101482.47
2023-05-21T18:08:23.686Z,101485.97
2023-05-21T18:13:25.318Z,101483.63
2023-05-21T18:18:27.042Z,101485.94
2023-05-21T18:23:30.582Z,101482.84
2023-05-21T18:28:33.396Z,101487.53
2023-05-21T18:33:34.948Z,101488.50
2023-05-21T18:38:36.670Z,101479.75
2023-05-21T18:43:38.397Z,101480.47
2023-05-21T18:48:40.164Z,101478.94
2023-05-21T18:53:44.734Z,101466.41
2023-05-21T18:58:47.586Z,101470.13
2023-05-21T19:03:49.452Z,101469.31
2023-05-21T19:08:54.618Z,101460.06
2023-05-21T19:13:56.654Z,101469.56
2023-05-21T19:18:58.666Z,101467.06
2023-05-21T19:24:01.056Z,101479.75
2023-05-21T19:29:02.877Z,101478.72
2023-05-21T19:34:16.977Z,101473.88
2023-05-21T19:39:18.596Z,101486.13
2023-05-21T19:44:20.340Z,101476.75
2023-05-21T19:49:21.931Z,101484.19
2023-05-21T19:54:24.363Z,101479.91
2023-05-21T19:59:26.456Z,101482.00
2023-05-21T20:04:32.111Z,101486.28
2023-05-21T20:09:33.822Z,101477.66
2023-05-21T20:14:37.652Z,101462.06
2023-05-21T20:19:39.291Z,101458.97
2023-05-21T20:24:41.151Z,101466.09
2023-05-21T20:29:42.929Z,101458.69
2023-05-21T20:35:01.554Z,101455.97
2023-05-21T20:40:05.741Z,101448.06
2023-05-21T20:45:07.884Z,101437.03
2023-05-21T20:50:09.779Z,101435.78
2023-05-21T20:55:12.718Z,101422.41
2023-05-21T21:00:15.965Z,101419.94
2023-05-21T21:05:17.723Z,101430.31
2023-05-21T21:10:20.028Z,101427.47
2023-05-21T21:15:21.658Z,101428.75
2023-05-21T21:20:23.211Z,101434.13
2023-05-21T21:25:24.837Z,101456.59
2023-05-21T21:30:26.527Z,101472.97
2023-05-21T21:35:28.057Z,101506.59
2023-05-21T21:40:29.612Z,101512.94
2023-05-21T21:45:31.956Z,101496.34
2023-05-21T21:50:33.709Z,101481.06
2023-05-21T21:55:35.347Z,101479.41
2023-05-21T22:00:37.171Z,101493.22
2023-05-21T22:05:38.952Z,101482.19
2023-05-21T22:10:40.686Z,101490.81
2023-05-21T22:15:42.455Z,101493.59
2023-05-21T22:20:46.062Z,101491.78
2023-05-21T22:25:47.637Z,101490.69
2023-05-21T22:30:49.357Z,101493.41
2023-05-21T22:35:53.352Z,101482.88
2023-05-21T22:40:55.056Z,101487.72
2023-05-21T22:45:56.588Z,101473.56
2023-05-21T22:50:58.531Z,101472.41
2023-05-21T22:56:00.796Z,101468.78
2023-05-21T23:01:02.577Z,101466.25
2023-05-21T23:06:04.186Z,101466.84
2023-05-21T23:11:06.059Z,101478.72
2023-05-21T23:16:07.894Z,101467.47
2023-05-21T23:21:09.491Z,101468.09
2023-05-21T23:26:11.509Z,101468.47
2023-05-21T23:31:13.672Z,101471.25
2023-05-21T23:36:15.375Z,101476.63
2023-05-21T23:41:17.002Z,101471.59
2023-05-21T23:46:18.915Z,101463.91
2023-05-21T23:51:21.569Z,101455.31
2023-05-21T23:56:23.217Z,101467.47
